Time;durP1;ratioP1;P1;durP2;ratioP2;P2;SDS_P1;SDS_P2;PMS_P1;PMS_P2;Temp;Humidity;BMP_temperature;BMP_pressure;BME280_temperature;BME280_humidity;BME280_pressure;Samples;Min_cycle;Max_cycle;Signal;HPM_P1;HPM_P2
2023/02/02 00:01:15;;;;;;;5.18;1.73;;;3.80;99.90;;;;;;5089477;28;20054;-75
2023/02/02 00:03:40;;;;;;;;;;;3.80;99.90;;;;;;5089143;28;20028;-73
2023/02/02 00:06:06;;;;;;;5.55;1.40;;;3.80;99.90;;;;;;5088276;28;19904;-74
2023/02/02 00:08:32;;;;;;;;;;;3.80;99.90;;;;;;5089854;28;20028;-73
2023/02/02 00:10:58;;;;;;;6.03;1.45;;;3.80;99.90;;;;;;5088678;28;19912;-75
2023/02/02 00:13:23;;;;;;;;;;;3.80;99.90;;;;;;5088993;28;20020;-73
2023/02/02 00:15:52;;;;;;;4.40;1.73;;;3.80;99.90;;;;;;5089696;28;20708;-74
2023/02/02 00:18:17;;;;;;;4.88;1.50;;;3.80;99.90;;;;;;5088702;28;20020;-74
2023/02/02 00:20:44;;;;;;;;;;;3.80;99.90;;;;;;5090188;28;20039;-74
2023/02/02 00:23:09;;;;;;;6.57;2.28;;;3.90;99.90;;;;;;5088545;28;19914;-74
2023/02/02 00:25:35;;;;;;;;;;;3.90;99.90;;;;;;5090105;28;20119;-74
2023/02/02 00:28:01;;;;;;;4.13;1.48;;;4.00;99.90;;;;;;5089631;28;19970;-74
2023/02/02 00:30:26;;;;;;;;;;;4.00;99.90;;;;;;5090105;28;20040;-72
2023/02/02 00:32:52;;;;;;;9.50;1.80;;;4.00;99.90;;;;;;5088113;28;19911;-74
2023/02/02 00:35:18;;;;;;;;;;;4.10;99.90;;;;;;5088574;28;20452;-74
2023/02/02 00:37:44;;;;;;;9.32;1.90;;;4.10;99.90;;;;;;5089435;28;19919;-74
2023/02/02 00:40:09;;;;;;;;;;;4.10;99.90;;;;;;5089841;28;20028;-74
2023/02/02 00:42:35;;;;;;;8.20;2.22;;;4.00;99.90;;;;;;5088114;28;19916;-74
2023/02/02 00:45:16;;;;;;;;;;;4.00;99.90;;;;;;5088722;28;20020;-74
2023/02/02 00:47:48;;;;;;;5.07;1.85;;;4.00;99.90;;;;;;5088204;28;19912;-75
2023/02/02 00:50:19;;;;;;;6.07;2.17;;;3.90;99.90;;;;;;5087883;28;20076;-74
2023/02/02 00:52:46;;;;;;;4.53;1.27;;;3.80;99.90;;;;;;5089468;28;20028;-74
2023/02/02 00:55:12;;;;;;;13.25;3.13;;;3.80;99.90;;;;;;5089493;28;20102;-72
2023/02/02 00:57:40;;;;;;;8.55;2.10;;;3.70;99.90;;;;;;5088408;28;20028;-72
2023/02/02 01:00:07;;;;;;;5.22;1.58;;;3.70;99.90;;;;;;5089353;28;20069;-74
2023/02/02 01:02:34;;;;;;;7.45;1.65;;;3.70;99.90;;;;;;5088652;28;20035;-74
2023/02/02 01:05:00;;;;;;;3.63;1.35;;;3.70;99.90;;;;;;5089376;28;20028;-74
2023/02/02 01:07:32;;;;;;;;;;;3.60;99.90;;;;;;5089879;28;20595;-71
2023/02/02 01:09:57;;;;;;;4.55;1.38;;;3.60;99.90;;;;;;5089107;28;19958;-74
2023/02/02 01:12:23;;;;;;;;;;;3.60;99.90;;;;;;5088321;28;20036;-75
2023/02/02 01:14:48;;;;;;;5.05;1.20;;;3.60;99.90;;;;;;5090682;28;19908;-75
2023/02/02 01:17:14;;;;;;;;;;;3.60;99.90;;;;;;5092222;28;20046;-73
2023/02/02 01:19:40;;;;;;;4.80;1.10;;;3.60;99.90;;;;;;5092978;28;19908;-74
2023/02/02 01:22:06;;;;;;;;;;;3.60;99.90;;;;;;5093131;28;20028;-74
2023/02/02 01:24:32;;;;;;;4.63;1.00;;;3.60;99.90;;;;;;5091430;28;19904;-74
2023/02/02 01:26:57;;;;;;;;;;;3.60;99.90;;;;;;5093101;28;20024;-74
2023/02/02 01:29:23;;;;;;;10.43;2.13;;;3.60;99.90;;;;;;5092330;28;19904;-74
2023/02/02 01:31:49;;;;;;;;;;;3.60;99.90;;;;;;5091247;28;20032;-74
2023/02/02 01:34:14;;;;;;;5.88;1.38;;;3.60;99.90;;;;;;5092361;28;19908;-75
2023/02/02 01:36:40;;;;;;;;;;;3.50;99.90;;;;;;5092745;28;20024;-75
2023/02/02 01:39:05;;;;;;;5.40;1.30;;;3.50;99.90;;;;;;5092535;28;19904;-75
2023/02/02 01:41:31;;;;;;;;;;;3.50;99.90;;;;;;5091579;28;20034;-73
2023/02/02 01:44:03;;;;;;;7.93;1.20;;;3.40;99.90;;;;;;5092214;28;19904;-74
2023/02/02 01:46:31;;;;;;;5.15;0.95;;;3.40;99.90;;;;;;5092265;28;20016;-75
2023/02/02 01:49:09;;;;;;;2.95;0.80;;;3.50;99.90;;;;;;5090796;28;20020;-74
2023/02/02 01:51:57;;;;;;;4.88;0.85;;;3.60;99.90;;;;;;5091955;28;20044;-74
2023/02/02 01:54:30;;;;;;;1.83;0.70;;;3.60;99.90;;;;;;5092210;28;20023;-74
2023/02/02 01:57:37;;;;;;;2.72;0.50;;;3.60;99.90;;;;;;5092085;28;20089;-73
2023/02/02 02:00:07;;;;;;;5.95;0.75;;;3.60;99.90;;;;;;5088175;28;20050;-74
2023/02/02 02:02:34;;;;;;;4.03;0.73;;;3.70;99.90;;;;;;5090900;28;20035;-75
2023/02/02 02:05:00;;;;;;;;;;;3.70;99.90;;;;;;5091208;28;20051;-75
2023/02/02 02:07:26;;;;;;;3.33;0.50;;;3.70;99.90;;;;;;5091805;28;19904;-74
2023/02/02 02:09:52;;;;;;;4.22;0.50;;;3.70;99.90;;;;;;5090428;28;20043;-75
2023/02/02 02:12:17;;;;;;;;;;;3.70;99.90;;;;;;5091911;28;20038;-76
2023/02/02 02:17:40;;;;;;;3.90;0.40;;;3.60;99.90;;;;;;5091833;28;20038;-74
2023/02/02 02:26:43;;;;;;;3.83;0.40;;;3.50;99.90;;;;;;5091547;28;20043;-73
2023/02/02 02:29:38;;;;;;;5.30;1.10;;;3.50;99.90;;;;;;5018735;28;20034;-75
2023/02/02 02:32:33;;;;;;;3.15;1.00;;;3.50;99.90;;;;;;5087740;28;20111;-73
2023/02/02 02:35:11;;;;;;;3.85;0.40;;;3.50;99.90;;;;;;5072178;28;20492;-73
2023/02/02 02:37:53;;;;;;;4.03;0.77;;;3.60;99.90;;;;;;5091252;28;20024;-74
2023/02/02 02:40:31;;;;;;;4.43;0.43;;;3.60;99.90;;;;;;5091255;28;20096;-74
2023/02/02 02:43:09;;;;;;;5.78;0.40;;;3.60;99.90;;;;;;5091168;28;20024;-73
2023/02/02 02:45:36;;;;;;;5.35;0.50;;;3.50;99.90;;;;;;5091046;28;20107;-73
2023/02/02 02:48:02;;;;;;;4.63;0.50;;;3.50;99.90;;;;;;5091121;28;20024;-74
2023/02/02 02:50:28;;;;;;;4.70;0.82;;;3.50;99.90;;;;;;5090773;28;20066;-74
2023/02/02 02:53:04;;;;;;;;;;;3.50;99.90;;;;;;5090142;28;20028;-74
2023/02/02 02:55:50;;;;;;;1.63;0.40;;;3.50;99.90;;;;;;5089489;28;19990;-75
2023/02/02 02:58:42;;;;;;;2.70;0.70;;;3.40;99.90;;;;;;5090624;28;20031;-73
2023/02/02 03:01:37;;;;;;;3.22;0.52;;;3.40;99.90;;;;;;5075936;28;20041;-75
2023/02/02 03:04:22;;;;;;;2.72;0.40;;;3.30;99.90;;;;;;5090752;28;20043;-74
2023/02/02 03:07:03;;;;;;;3.58;0.43;;;3.30;99.90;;;;;;5089227;28;20024;-75
2023/02/02 03:09:34;;;;;;;3.38;0.63;;;3.30;99.90;;;;;;5088997;28;20533;-75
2023/02/02 03:12:00;;;;;;;4.38;0.50;;;3.20;99.90;;;;;;5089250;28;20054;-74
2023/02/02 03:14:26;;;;;;;1.77;0.30;;;3.20;99.90;;;;;;5089236;28;20028;-75
2023/02/02 03:16:51;;;;;;;;;;;3.20;99.90;;;;;;5090672;28;20043;-74
2023/02/02 03:19:17;;;;;;;6.95;0.50;;;3.10;99.90;;;;;;5090530;28;19904;-74
2023/02/02 03:21:43;;;;;;;;;;;3.00;99.90;;;;;;5090970;28;20027;-74
2023/02/02 03:24:08;;;;;;;2.30;0.40;;;3.00;99.90;;;;;;5090401;28;20300;-76
2023/02/02 03:26:34;;;;;;;;;;;3.00;99.90;;;;;;5089444;28;20027;-75
2023/02/02 03:29:00;;;;;;;2.58;0.32;;;3.00;99.90;;;;;;5090346;28;20005;-76
2023/02/02 03:31:28;;;;;;;2.50;0.40;;;3.00;99.90;;;;;;5090152;28;20408;-75
2023/02/02 03:33:55;;;;;;;0.93;0.20;;;2.90;99.90;;;;;;5088843;28;20124;-76
2023/02/02 03:36:21;;;;;;;7.68;0.50;;;2.80;99.90;;;;;;5089585;28;20028;-74
2023/02/02 03:38:46;;;;;;;;;;;2.90;99.90;;;;;;5090548;28;20548;-73
2023/02/02 03:41:12;;;;;;;8.27;0.50;;;2.80;99.90;;;;;;5090195;28;19911;-75
2023/02/02 03:43:37;;;;;;;;;;;2.80;99.90;;;;;;5089175;28;20028;-73
2023/02/02 03:46:05;;;;;;;3.60;0.82;;;2.90;99.90;;;;;;5088644;28;19908;-75
2023/02/02 03:48:34;;;;;;;0.57;0.20;;;2.90;99.90;;;;;;5090176;28;20028;-75
2023/02/02 03:50:59;;;;;;;3.88;0.40;;;3.00;99.90;;;;;;5089576;28;20130;-75
2023/02/02 03:53:25;;;;;;;;;;;3.00;99.90;;;;;;5088664;28;20130;-75
2023/02/02 03:55:51;;;;;;;4.28;0.40;;;2.90;99.90;;;;;;5090045;28;19911;-74
2023/02/02 03:58:16;;;;;;;;;;;2.90;99.90;;;;;;5089999;28;20550;-73
2023/02/02 04:00:42;;;;;;;4.50;0.50;;;2.90;99.90;;;;;;5088443;28;19922;-74
2023/02/02 04:03:07;;;;;;;;;;;2.90;99.90;;;;;;5088720;28;20028;-73
2023/02/02 04:05:33;;;;;;;1.35;0.38;;;2.90;99.90;;;;;;5088102;28;19908;-75
2023/02/02 04:07:59;;;;;;;;;;;2.90;99.90;;;;;;5088925;28;20415;-74
2023/02/02 04:10:24;;;;;;;2.53;0.50;;;3.00;99.90;;;;;;5088769;28;19919;-74
2023/02/02 04:12:50;;;;;;;;;;;2.90;99.90;;;;;;5090213;28;20032;-74
2023/02/02 04:15:16;;;;;;;1.92;0.43;;;3.00;99.90;;;;;;5088372;28;19920;-75
2023/02/02 04:17:41;;;;;;;;;;;2.90;99.90;;;;;;5090276;28;20012;-74
2023/02/02 04:20:07;;;;;;;3.38;0.40;;;3.00;99.90;;;;;;5088673;28;19912;-74
2023/02/02 04:22:33;;;;;;;3.03;0.70;;;3.00;99.90;;;;;;5089689;28;20023;-74
2023/02/02 04:24:59;;;;;;;;;;;3.00;99.90;;;;;;5089827;28;20398;-74
2023/02/02 04:27:24;;;;;;;2.78;0.40;;;3.00;99.90;;;;;;5088798;28;19904;-75
2023/02/02 04:29:50;;;;;;;;;;;3.00;99.90;;;;;;5089574;28;20024;-73
2023/02/02 04:32:16;;;;;;;2.90;0.50;;;3.10;99.90;;;;;;5088593;28;20450;-73
2023/02/02 04:34:43;;;;;;;3.15;0.50;;;3.10;99.90;;;;;;5088220;28;20484;-73
2023/02/02 04:37:09;;;;;;;6.65;0.95;;;3.10;99.90;;;;;;5089459;28;20024;-75
2023/02/02 04:39:35;;;;;;;1.48;0.40;;;3.20;99.90;;;;;;5088174;28;20036;-74
2023/02/02 04:42:00;;;;;;;;;;;3.10;99.90;;;;;;5089482;28;20030;-74
2023/02/02 04:44:26;;;;;;;1.23;0.32;;;3.10;99.90;;;;;;5088495;28;19904;-73
2023/02/02 04:46:51;;;;;;;;;;;3.20;99.90;;;;;;5089852;28;20028;-72
2023/02/02 04:49:17;;;;;;;1.15;0.43;;;3.20;99.90;;;;;;5091229;28;20521;-74
2023/02/02 04:51:43;;;;;;;;;;;3.30;99.90;;;;;;5092225;28;20571;-74
2023/02/02 04:54:08;;;;;;;7.18;0.47;;;3.20;99.90;;;;;;5093175;28;19904;-75
2023/02/02 04:56:34;;;;;;;;;;;3.30;99.90;;;;;;5093575;28;20028;-75
2023/02/02 04:59:00;;;;;;;1.83;0.50;;;3.20;99.90;;;;;;5091820;28;20372;-74
2023/02/02 05:01:25;;;;;;;;;;;3.40;99.90;;;;;;5093401;28;20028;-73
2023/02/02 05:03:51;;;;;;;2.00;0.60;;;3.50;99.90;;;;;;5093109;28;19911;-74
2023/02/02 05:06:18;;;;;;;;;;;3.50;99.90;;;;;;5093303;28;20031;-75
2023/02/02 05:08:44;;;;;;;2.28;0.55;;;3.60;99.90;;;;;;5091577;28;19904;-75
2023/02/02 05:11:10;;;;;;;;;;;3.60;99.90;;;;;;5093093;28;20404;-74
2023/02/02 05:13:36;;;;;;;6.53;0.70;;;3.40;99.90;;;;;;5091291;28;20537;-75
2023/02/02 05:16:02;;;;;;;;;;;3.40;99.90;;;;;;5093020;28;20040;-73
2023/02/02 05:18:30;;;;;;;4.78;0.60;;;3.30;99.90;;;;;;5092837;28;19904;-74
2023/02/02 05:20:59;;;;;;;4.80;0.40;;;3.30;99.90;;;;;;5091216;28;20023;-74
2023/02/02 05:23:25;;;;;;;1.95;0.50;;;3.20;99.90;;;;;;5092593;28;20081;-74
2023/02/02 05:25:52;;;;;;;;;;;3.20;99.90;;;;;;5092823;28;20455;-74
2023/02/02 05:28:17;;;;;;;4.57;0.80;;;3.10;99.90;;;;;;5092558;28;20681;-75
2023/02/02 05:30:43;;;;;;;;;;;3.00;99.90;;;;;;5092575;28;20040;-74
2023/02/02 05:33:09;;;;;;;5.43;0.82;;;2.90;99.90;;;;;;5092520;28;19908;-75
2023/02/02 05:35:34;;;;;;;;;;;2.90;99.90;;;;;;5091425;28;20024;-73
2023/02/02 05:38:00;;;;;;;3.75;0.60;;;3.00;99.90;;;;;;5091413;28;19915;-75
2023/02/02 05:40:25;;;;;;;;;;;3.00;99.90;;;;;;5092765;28;20039;-74
2023/02/02 05:42:51;;;;;;;3.42;0.80;;;2.90;99.90;;;;;;5090623;28;19908;-74
2023/02/02 05:45:17;;;;;;;;;;;2.80;99.90;;;;;;5092484;28;20439;-74
2023/02/02 05:47:42;;;;;;;5.50;0.77;;;2.80;99.90;;;;;;5091176;28;19949;-74
2023/02/02 05:50:08;;;;;;;2.47;0.50;;;2.80;99.90;;;;;;5091818;28;20031;-74
2023/02/02 05:52:36;;;;;;;5.78;0.70;;;2.70;99.90;;;;;;5092005;28;20081;-74
2023/02/02 05:55:01;;;;;;;3.05;0.60;;;2.70;99.90;;;;;;5092077;28;20024;-73
2023/02/02 05:57:27;;;;;;;;;;;2.60;99.90;;;;;;5092376;28;20027;-74
2023/02/02 05:59:53;;;;;;;1.77;0.40;;;2.60;99.90;;;;;;5091473;28;20284;-75
2023/02/02 06:02:19;;;;;;;4.93;0.50;;;2.50;99.90;;;;;;5091924;28;20024;-74
2023/02/02 06:04:45;;;;;;;;;;;2.50;99.90;;;;;;5092061;28;20085;-74
2023/02/02 06:07:11;;;;;;;3.63;0.68;;;2.60;99.90;;;;;;5091668;28;19904;-74
2023/02/02 06:09:37;;;;;;;5.88;0.60;;;2.50;99.90;;;;;;5090249;28;20372;-74
2023/02/02 06:12:03;;;;;;;;;;;2.50;99.90;;;;;;5090831;28;20081;-75
2023/02/02 06:14:29;;;;;;;3.20;0.75;;;2.50;99.90;;;;;;5090262;28;19904;-74
2023/02/02 06:16:54;;;;;;;;;;;2.40;99.90;;;;;;5091814;28;20035;-73
2023/02/02 06:19:20;;;;;;;6.35;1.45;;;2.40;99.90;;;;;;5091394;28;19995;-74
2023/02/02 06:21:45;;;;;;;;;;;2.40;99.90;;;;;;5091989;28;20028;-75
2023/02/02 06:24:11;;;;;;;4.40;1.27;;;2.30;99.90;;;;;;5091305;28;19908;-74
2023/02/02 06:26:37;;;;;;;;;;;2.30;99.90;;;;;;5090343;28;20047;-74
2023/02/02 06:29:02;;;;;;;3.53;0.55;;;2.30;99.90;;;;;;5089882;28;19908;-74
2023/02/02 06:31:28;;;;;;;;;;;2.30;99.90;;;;;;5091446;28;20496;-75
2023/02/02 06:33:56;;;;;;;1.88;0.50;;;2.30;99.90;;;;;;5091265;28;19911;-73
2023/02/02 06:36:24;;;;;;;11.10;1.45;;;2.30;99.90;;;;;;5089875;28;20031;-75
2023/02/02 06:38:51;;;;;;;2.45;0.50;;;2.30;99.90;;;;;;5091155;28;20103;-74
2023/02/02 06:41:19;;;;;;;1.45;0.40;;;2.30;99.90;;;;;;5091220;28;20065;-74
2023/02/02 06:43:45;;;;;;;4.05;0.70;;;2.40;99.90;;;;;;5089824;28;20024;-75
2023/02/02 06:46:11;;;;;;;4.07;0.80;;;2.40;99.90;;;;;;5091060;28;20035;-74
2023/02/02 06:48:37;;;;;;;4.32;0.82;;;2.40;99.90;;;;;;5091080;28;20039;-74
2023/02/02 06:51:04;;;;;;;;;;;2.40;99.90;;;;;;5091257;28;20048;-74
2023/02/02 06:53:30;;;;;;;2.50;0.73;;;2.50;99.90;;;;;;5090804;28;19911;-74
2023/02/02 06:55:58;;;;;;;4.70;0.82;;;2.40;99.90;;;;;;5090808;28;20470;-76
2023/02/02 06:58:23;;;;;;;3.47;0.73;;;2.60;99.90;;;;;;5091039;28;20073;-74
2023/02/02 07:00:49;;;;;;;;;;;2.80;99.90;;;;;;5091053;28;20031;-73
2023/02/02 07:03:15;;;;;;;8.05;0.75;;;3.00;99.90;;;;;;5090791;28;19939;-74
2023/02/02 07:05:41;;;;;;;3.63;0.63;;;3.40;99.90;;;;;;5090435;28;20032;-73
2023/02/02 07:08:07;;;;;;;;;;;4.00;99.90;;;;;;5089369;28;20142;-74
2023/02/02 07:10:33;;;;;;;3.25;0.90;;;4.70;99.90;;;;;;5090047;28;19912;-74
2023/02/02 07:12:58;;;;;;;4.55;1.42;;;5.40;99.90;;;;;;5088937;28;20055;-73
2023/02/02 07:15:24;;;;;;;;;;;6.00;99.90;;;;;;5090579;28;20119;-75
2023/02/02 07:17:49;;;;;;;4.00;0.70;;;6.50;99.90;;;;;;5090349;28;19908;-73
2023/02/02 07:20:15;;;;;;;;;;;6.90;99.90;;;;;;5089163;28;20290;-75
2023/02/02 07:22:41;;;;;;;9.07;1.52;;;6.90;99.90;;;;;;5090440;28;19954;-73
2023/02/02 07:25:07;;;;;;;4.97;1.00;;;7.10;99.90;;;;;;5090432;28;20503;-73
2023/02/02 07:27:33;;;;;;;5.07;0.60;;;7.10;99.90;;;;;;5088940;28;20028;-73
2023/02/02 07:29:59;;;;;;;3.28;0.52;;;7.00;99.90;;;;;;5089558;28;20024;-74
2023/02/02 07:32:24;;;;;;;;;;;6.90;99.90;;;;;;5090829;28;20369;-74
2023/02/02 07:34:50;;;;;;;4.07;0.75;;;6.90;99.90;;;;;;5088757;28;19907;-74
2023/02/02 07:37:16;;;;;;;;;;;7.10;99.90;;;;;;5089255;28;20438;-74
2023/02/02 07:39:42;;;;;;;2.90;0.80;;;7.10;99.90;;;;;;5090244;28;20559;-73
2023/02/02 07:42:11;;;;;;;4.63;0.60;;;7.20;99.90;;;;;;5088743;28;20522;-73
2023/02/02 07:44:36;;;;;;;4.88;0.90;;;7.40;99.90;;;;;;5089869;28;20028;-74
2023/02/02 07:47:02;;;;;;;;;;;7.50;99.90;;;;;;5090488;28;20089;-73
2023/02/02 07:49:28;;;;;;;2.75;0.52;;;7.50;99.90;;;;;;5088570;28;19948;-74
2023/02/02 07:51:53;;;;;;;;;;;7.60;99.90;;;;;;5090057;28;20420;-73
2023/02/02 07:54:19;;;;;;;3.47;0.65;;;7.40;99.90;;;;;;5089991;28;19908;-73
2023/02/02 07:56:45;;;;;;;;;;;7.20;99.90;;;;;;5089012;28;20505;-74
2023/02/02 07:59:11;;;;;;;3.15;0.60;;;7.20;99.90;;;;;;5089643;28;19904;-74
2023/02/02 08:01:36;;;;;;;;;;;7.30;99.90;;;;;;5089108;28;20032;-74
2023/02/02 08:04:02;;;;;;;4.90;0.60;;;7.30;99.90;;;;;;5088410;28;19911;-73
2023/02/02 08:06:31;;;;;;;5.25;0.80;;;7.50;99.90;;;;;;5087913;28;20059;-74
2023/02/02 08:08:57;;;;;;;4.30;0.85;;;7.70;99.90;;;;;;5089616;28;20418;-74
2023/02/02 08:11:24;;;;;;;4.55;0.70;;;7.80;99.90;;;;;;5088229;28;20110;-73
2023/02/02 08:13:53;;;;;;;5.13;0.60;;;7.90;99.90;;;;;;5089628;28;20020;-73
2023/02/02 08:16:19;;;;;;;5.72;0.82;;;8.00;99.90;;;;;;5089671;28;20020;-74
2023/02/02 08:18:46;;;;;;;4.05;0.70;;;8.20;99.90;;;;;;5088275;28;20027;-73
2023/02/02 08:21:12;;;;;;;3.20;0.63;;;8.10;99.90;;;;;;5089613;28;20024;-74
2023/02/02 08:23:38;;;;;;;;;;;8.00;99.90;;;;;;5091686;28;20470;-74
2023/02/02 08:26:25;;;;;;;7.97;0.80;;;8.00;99.90;;;;;;5092511;28;19908;-74
2023/02/02 08:29:03;;;;;;;5.68;1.00;;;8.10;99.90;;;;;;5093686;28;20541;-74
2023/02/02 08:31:35;;;;;;;6.55;1.42;;;8.40;99.90;;;;;;5092399;28;20043;-73
2023/02/02 08:34:01;;;;;;;4.78;0.50;;;8.70;99.30;;;;;;5092270;28;20107;-73
2023/02/02 08:36:28;;;;;;;3.70;0.68;;;8.90;97.40;;;;;;5093720;28;20024;-74
2023/02/02 08:38:54;;;;;;;3.63;0.60;;;9.10;97.90;;;;;;5092156;28;20020;-71
2023/02/02 08:41:21;;;;;;;;;;;9.30;97.20;;;;;;5092508;28;20047;-74
2023/02/02 08:43:47;;;;;;;;;;;9.40;96.30;;;;;;5093809;28;19904;-74
2023/02/02 08:46:15;;;;;;;5.78;0.60;;;9.60;95.60;;;;;;5093229;28;20268;-74
2023/02/02 08:48:41;;;;;;;3.38;0.63;;;9.80;92.10;;;;;;5091628;28;20020;-73
2023/02/02 08:51:08;;;;;;;;;;;9.80;89.60;;;;;;5093608;28;20535;-73
2023/02/02 08:53:34;;;;;;;2.08;0.47;;;10.10;89.50;;;;;;5093212;28;19908;-73
2023/02/02 08:56:04;;;;;;;;;;;10.40;85.50;;;;;;5093722;28;20031;-75
2023/02/02 08:58:30;;;;;;;3.55;0.60;;;10.60;83.40;;;;;;5091776;28;20371;-73
2023/02/02 09:01:20;;;;;;;5.15;0.68;;;10.80;82.20;;;;;;5093040;28;20500;-75
2023/02/02 09:03:46;;;;;;;3.60;0.65;;;11.20;77.10;;;;;;5085564;28;20036;-73
2023/02/02 09:06:12;;;;;;;;;;;11.70;74.50;;;;;;5093402;28;20037;-73
2023/02/02 09:08:39;;;;;;;3.95;0.80;;;12.10;66.80;;;;;;5091457;28;19908;-73
2023/02/02 09:11:13;;;;;;;2.78;0.50;;;12.10;63.60;;;;;;5092907;28;20043;-74
2023/02/02 09:13:40;;;;;;;3.50;0.80;;;11.70;64.90;;;;;;5092624;28;20024;-73
2023/02/02 09:16:09;;;;;;;3.80;0.98;;;11.70;67.20;;;;;;5091212;28;20028;-74
2023/02/02 09:18:35;;;;;;;4.65;0.80;;;11.40;65.60;;;;;;5092688;28;20020;-73
2023/02/02 09:21:03;;;;;;;;;;;11.10;69.50;;;;;;5093136;28;20429;-75
2023/02/02 09:23:30;;;;;;;3.58;0.50;;;11.00;71.90;;;;;;5091267;28;20376;-74
2023/02/02 09:25:56;;;;;;;9.90;1.00;;;11.20;71.20;;;;;;5091358;28;20032;-73
2023/02/02 09:28:21;;;;;;;;;;;11.40;69.50;;;;;;5093045;28;20078;-73
2023/02/02 09:30:47;;;;;;;8.90;1.05;;;11.20;68.70;;;;;;5091124;28;20315;-74
2023/02/02 09:33:13;;;;;;;;;;;10.80;70.80;;;;;;5093122;28;20024;-75
2023/02/02 09:35:38;;;;;;;3.17;0.50;;;10.40;73.70;;;;;;5091805;28;20240;-74
2023/02/02 09:38:04;;;;;;;;;;;9.90;78.80;;;;;;5091728;28;20035;-75
2023/02/02 09:40:31;;;;;;;3.28;0.82;;;9.60;85.50;;;;;;5092558;28;19999;-73
2023/02/02 09:43:15;;;;;;;3.63;0.60;;;9.30;88.70;;;;;;5092542;28;20020;-75
2023/02/02 09:45:46;;;;;;;3.13;0.50;;;9.20;90.50;;;;;;5092315;28;20557;-75
2023/02/02 09:48:37;;;;;;;4.78;0.70;;;8.90;94.60;;;;;;5092198;28;20085;-75
2023/02/02 09:51:12;;;;;;;2.97;0.70;;;8.90;94.40;;;;;;5080986;28;20486;-74
2023/02/02 09:53:52;;;;;;;4.90;1.05;;;8.80;94.30;;;;;;5092336;28;20066;-74
2023/02/02 09:56:33;;;;;;;6.32;0.50;;;8.70;97.50;;;;;;5090674;28;20400;-74
2023/02/02 09:59:00;;;;;;;5.68;1.15;;;8.70;97.30;;;;;;5092158;28;20024;-73
2023/02/02 10:01:35;;;;;;;4.07;0.68;;;8.50;96.80;;;;;;5092062;28;20054;-74
2023/02/02 10:04:30;;;;;;;4.03;0.68;;;8.20;99.40;;;;;;5090621;28;20504;-74
2023/02/02 10:06:59;;;;;;;4.88;0.80;;;8.10;99.90;;;;;;5091769;28;20035;-74
2023/02/02 10:09:35;;;;;;;6.32;1.60;;;8.00;99.90;;;;;;5091657;28;20028;-74
2023/02/02 10:12:05;;;;;;;5.97;0.60;;;7.90;99.90;;;;;;5091604;28;20031;-74
2023/02/02 10:14:49;;;;;;;3.08;0.55;;;7.80;99.90;;;;;;5090415;28;20024;-74
2023/02/02 10:17:20;;;;;;;7.15;0.95;;;7.60;99.90;;;;;;5090388;28;20515;-74
2023/02/02 10:19:49;;;;;;;5.78;0.70;;;7.40;99.90;;;;;;5090368;28;20119;-74
2023/02/02 10:22:22;;;;;;;6.18;0.70;;;7.20;99.90;;;;;;5091527;28;20612;-74
2023/02/02 10:24:47;;;;;;;5.10;0.60;;;7.20;99.90;;;;;;5091523;28;20024;-74
2023/02/02 10:27:14;;;;;;;;;;;7.30;99.90;;;;;;5091832;28;20098;-75
2023/02/02 10:30:00;;;;;;;8.38;0.75;;;7.40;99.90;;;;;;5091547;28;19904;-74
2023/02/02 10:32:32;;;;;;;4.22;0.60;;;7.60;99.90;;;;;;5090126;28;20047;-75
2023/02/02 10:35:47;;;;;;;5.72;0.88;;;7.60;99.90;;;;;;5091452;28;20024;-74
2023/02/02 10:38:33;;;;;;;6.38;0.80;;;7.60;99.90;;;;;;5091403;28;20038;-74
2023/02/02 10:41:23;;;;;;;6.05;1.33;;;7.50;99.90;;;;;;5090028;28;20069;-74
2023/02/02 10:44:17;;;;;;;3.95;0.70;;;7.50;99.90;;;;;;5089992;28;20032;-75
2023/02/02 10:46:48;;;;;;;2.45;0.50;;;7.70;99.90;;;;;;5089646;28;20115;-74
2023/02/02 10:49:36;;;;;;;5.35;0.90;;;7.80;99.90;;;;;;5091158;28;20035;-74
2023/02/02 10:52:14;;;;;;;4.07;0.68;;;8.20;99.90;;;;;;5089386;28;20059;-74
2023/02/02 10:55:02;;;;;;;6.50;0.82;;;8.30;99.90;;;;;;5089369;28;20062;-74
2023/02/02 10:57:33;;;;;;;4.07;0.73;;;8.50;99.30;;;;;;5089763;28;20043;-75
2023/02/02 11:00:08;;;;;;;4.07;0.63;;;8.80;96.30;;;;;;5090658;28;20026;-74
2023/02/02 11:02:34;;;;;;;6.20;1.10;;;8.90;94.40;;;;;;5089306;28;20032;-73
2023/02/02 11:07:44;;;;;;;5.55;0.77;;;8.70;96.80;;;;;;5090729;28;19949;-74
2023/02/02 11:10:09;;;;;;;;;;;8.70;98.00;;;;;;5090901;28;20035;-74
2023/02/02 11:12:40;;;;;;;9.32;1.10;;;8.70;98.80;;;;;;5090451;28;20375;-74
2023/02/02 11:15:21;;;;;;;7.90;1.23;;;8.70;97.80;;;;;;5090457;28;20028;-74
2023/02/02 11:17:47;;;;;;;2.58;0.52;;;8.70;98.10;;;;;;5089152;28;20028;-73
2023/02/02 11:20:20;;;;;;;;;;;8.80;98.10;;;;;;5089523;28;20028;-74
2023/02/02 11:22:46;;;;;;;3.17;0.60;;;8.90;99.40;;;;;;5089044;28;20285;-74
2023/02/02 11:25:26;;;;;;;;;;;9.00;96.30;;;;;;5089281;28;20502;-74
2023/02/02 11:27:51;;;;;;;5.07;0.68;;;8.80;96.00;;;;;;5088933;28;19904;-74
2023/02/02 11:30:24;;;;;;;;;;;8.70;95.60;;;;;;5090453;28;20035;-74
2023/02/02 11:32:49;;;;;;;6.47;1.13;;;8.40;98.00;;;;;;5090186;28;19962;-74
2023/02/02 11:35:17;;;;;;;;;;;8.40;99.90;;;;;;5090386;28;20488;-74
2023/02/02 11:38:08;;;;;;;6.10;0.70;;;8.40;99.90;;;;;;5090359;28;19911;-74
2023/02/02 11:40:39;;;;;;;3.58;0.47;;;8.50;99.90;;;;;;5090309;28;20081;-74
2023/02/02 11:43:16;;;;;;;8.02;0.80;;;8.50;98.70;;;;;;5090285;28;20028;-73
2023/02/02 11:45:43;;;;;;;4.50;0.70;;;8.40;99.90;;;;;;5090060;28;20418;-74
2023/02/02 11:48:15;;;;;;;3.90;0.70;;;8.30;99.70;;;;;;5090069;28;20050;-73
2023/02/02 11:50:50;;;;;;;6.35;0.98;;;8.30;98.90;;;;;;5089774;28;20122;-74
2023/02/02 11:53:23;;;;;;;8.60;0.80;;;8.10;99.90;;;;;;5090020;28;20032;-75
2023/02/02 11:55:50;;;;;;;7.63;0.98;;;8.10;99.90;;;;;;5088676;28;20020;-74
2023/02/02 11:58:23;;;;;;;11.25;0.98;;;8.00;99.90;;;;;;5087990;28;20520;-74
2023/02/02 12:00:53;;;;;;;3.58;0.60;;;8.10;99.90;;;;;;5088590;28;20024;-74
2023/02/02 12:03:32;;;;;;;5.57;1.30;;;8.10;99.90;;;;;;5090042;28;20024;-74
2023/02/02 12:06:00;;;;;;;7.57;0.88;;;8.20;99.90;;;;;;5088515;28;20044;-74
2023/02/02 12:08:27;;;;;;;4.10;0.70;;;8.10;99.90;;;;;;5088494;28;20057;-74
2023/02/02 12:11:06;;;;;;;7.35;1.05;;;8.10;99.50;;;;;;5088411;28;20046;-74
2023/02/02 12:13:34;;;;;;;3.58;0.50;;;8.10;99.90;;;;;;5089850;28;20012;-73
2023/02/02 12:16:15;;;;;;;7.35;1.10;;;8.20;99.90;;;;;;5089801;28;20496;-74
2023/02/02 12:19:08;;;;;;;4.82;0.80;;;8.30;99.00;;;;;;5088368;28;20020;-74
2023/02/02 12:21:38;;;;;;;5.75;0.80;;;8.40;98.80;;;;;;5088351;28;20028;-75
2023/02/02 12:24:30;;;;;;;5.20;0.90;;;8.40;99.60;;;;;;5088375;28;20115;-74
2023/02/02 12:27:25;;;;;;;3.67;0.63;;;8.40;98.30;;;;;;5088314;28;20032;-73
2023/02/02 12:30:04;;;;;;;3.63;0.70;;;8.60;98.20;;;;;;5089670;28;20024;-75
2023/02/02 12:33:08;;;;;;;4.97;1.65;;;8.70;97.20;;;;;;5089817;28;20765;-74
2023/02/02 12:35:52;;;;;;;5.38;0.88;;;8.80;98.80;;;;;;5089280;28;20021;-73
2023/02/02 12:38:49;;;;;;;3.72;0.70;;;8.70;95.40;;;;;;5089590;28;20080;-74
2023/02/02 12:41:43;;;;;;;2.92;0.70;;;8.70;97.10;;;;;;5089602;28;20032;-74
2023/02/02 12:44:27;;;;;;;7.55;1.67;;;8.60;97.70;;;;;;5045707;28;20051;-74
2023/02/02 12:47:02;;;;;;;6.88;0.90;;;8.50;97.70;;;;;;5088005;28;20450;-75
2023/02/02 12:49:43;;;;;;;9.85;0.82;;;8.50;98.00;;;;;;5087957;28;20036;-74
2023/02/02 12:52:36;;;;;;;7.78;0.82;;;8.40;97.40;;;;;;5087873;28;20113;-74
2023/02/02 12:55:38;;;;;;;14.18;5.60;;;8.30;97.90;;;;;;5089267;28;20023;-73
2023/02/02 12:58:17;;;;;;;3.47;1.20;;;8.00;99.30;;;;;;5089220;28;20583;-75
2023/02/02 13:01:00;;;;;;;4.22;0.80;;;7.70;99.90;;;;;;5089158;28;20072;-73
2023/02/02 13:03:29;;;;;;;3.60;0.47;;;7.60;99.90;;;;;;5089100;28;20020;-74
2023/02/02 13:06:13;;;;;;;5.60;0.95;;;7.50;99.90;;;;;;5087856;28;20059;-74
2023/02/02 13:08:46;;;;;;;5.15;0.90;;;7.40;99.90;;;;;;5089152;28;20016;-74
2023/02/02 13:11:28;;;;;;;6.20;1.05;;;7.30;99.90;;;;;;5092453;28;20602;-74
2023/02/02 13:14:26;;;;;;;6.82;0.88;;;7.20;99.90;;;;;;5092714;28;20044;-74
2023/02/02 13:16:57;;;;;;;;;;;7.00;99.90;;;;;;5093146;28;20028;-74
2023/02/02 13:19:45;;;;;;;4.95;0.98;;;7.00;99.90;;;;;;5092654;28;20000;-74
2023/02/02 13:22:18;;;;;;;3.47;0.60;;;7.00;99.90;;;;;;5092567;28;20050;-74
2023/02/02 13:24:48;;;;;;;4.13;0.50;;;7.00;99.90;;;;;;5092641;28;20058;-74
2023/02/02 13:27:19;;;;;;;7.18;0.70;;;6.90;99.90;;;;;;5092548;28;20020;-74
2023/02/02 13:30:17;;;;;;;5.75;0.75;;;7.00;99.90;;;;;;5091223;28;20115;-74
2023/02/02 13:32:45;;;;;;;4.93;0.80;;;7.10;99.90;;;;;;5069439;28;20516;-74
2023/02/02 13:35:24;;;;;;;14.15;1.70;;;7.00;99.90;;;;;;5091084;28;20381;-74
2023/02/02 13:38:15;;;;;;;15.07;5.35;;;7.00;99.90;;;;;;5091316;28;20508;-74
2023/02/02 13:40:42;;;;;;;14.85;4.80;;;7.00;99.90;;;;;;5091031;28;20020;-74
2023/02/02 13:43:23;;;;;;;37.33;16.08;;;7.00;99.90;;;;;;5090840;28;20024;-74
2023/02/02 13:45:55;;;;;;;13.95;5.75;;;6.90;99.90;;;;;;5092366;28;20547;-74
2023/02/02 13:48:31;;;;;;;20.35;6.90;;;7.00;99.90;;;;;;5092128;28;20104;-74